Time;durP1;ratioP1;P1;durP2;ratioP2;P2;SDS_P1;SDS_P2;PMS_P1;PMS_P2;Temp;Humidity;BMP_temperature;BMP_pressure;BME280_temperature;BME280_humidity;BME280_pressure;Samples;Min_cycle;Max_cycle;Signal;HPM_P1;HPM_P2
2022/05/08 00:02:19;;;;;;;31.70;24.17;;;9.30;99.90;;;;;;5012848;28;20041;-67
2022/05/08 00:04:50;;;;;;;35.58;25.88;;;9.20;99.90;;;;;;5021953;28;20073;-67
2022/05/08 00:07:21;;;;;;;35.25;25.17;;;9.20;99.90;;;;;;5033400;28;20040;-68
2022/05/08 00:09:49;;;;;;;31.90;25.85;;;9.20;99.90;;;;;;5035367;28;20099;-67
2022/05/08 00:12:17;;;;;;;30.42;23.58;;;9.10;99.90;;;;;;5035623;28;20076;-66
2022/05/08 00:14:45;;;;;;;29.48;23.45;;;9.10;99.90;;;;;;5035782;28;20037;-66
2022/05/08 00:17:13;;;;;;;25.10;18.95;;;9.10;99.90;;;;;;5034609;28;20679;-67
2022/05/08 00:19:41;;;;;;;25.58;19.45;;;9.10;99.90;;;;;;5033536;28;20037;-67
2022/05/08 00:22:07;;;;;;;27.40;20.83;;;9.10;99.90;;;;;;5035772;28;20049;-68
2022/05/08 00:24:55;;;;;;;27.35;21.23;;;9.10;99.90;;;;;;5034834;28;20045;-68
2022/05/08 00:27:22;;;;;;;23.83;18.10;;;9.10;99.90;;;;;;5034736;28;20091;-68
2022/05/08 00:29:49;;;;;;;22.70;17.77;;;9.10;99.90;;;;;;5036014;28;20428;-68
2022/05/08 00:32:16;;;;;;;23.92;19.05;;;9.10;99.90;;;;;;5034494;28;20162;-67
2022/05/08 00:34:46;;;;;;;22.83;18.42;;;9.10;99.90;;;;;;5035319;28;20029;-68
2022/05/08 00:37:13;;;;;;;23.58;18.63;;;9.10;99.90;;;;;;5034380;28;20621;-67
2022/05/08 00:39:40;;;;;;;;;;;9.20;99.90;;;;;;5017677;28;20045;-67
2022/05/08 00:42:08;;;;;;;;;;;9.20;99.90;;;;;;5035588;28;20048;-67
2022/05/08 00:44:35;;;;;;;20.00;16.37;;;9.20;99.90;;;;;;5035419;28;19967;-68
2022/05/08 00:47:02;;;;;;;25.92;17.10;;;9.20;99.90;;;;;;5033598;28;20902;-67
2022/05/08 00:49:29;;;;;;;19.92;16.75;;;9.30;99.90;;;;;;5034783;28;20725;-67
2022/05/08 00:51:56;;;;;;;20.88;17.35;;;9.30;99.90;;;;;;5035061;28;20060;-68
2022/05/08 00:54:23;;;;;;;;;;;9.30;99.90;;;;;;5034859;28;20045;-67
2022/05/08 00:56:50;;;;;;;18.98;15.60;;;9.40;99.90;;;;;;5032829;28;19978;-67
2022/05/08 00:59:16;;;;;;;;;;;9.40;99.90;;;;;;5035508;28;20091;-67
2022/05/08 01:01:43;;;;;;;20.30;16.30;;;9.40;99.90;;;;;;5028212;28;19925;-67
2022/05/08 01:04:10;;;;;;;21.80;16.90;;;9.50;99.90;;;;;;5026068;28;20139;-67
2022/05/08 01:06:37;;;;;;;21.38;16.25;;;9.50;99.90;;;;;;5034269;28;20103;-68
2022/05/08 01:09:04;;;;;;;;;;;9.50;99.90;;;;;;5034041;28;20056;-68
2022/05/08 01:11:31;;;;;;;26.65;19.13;;;9.50;99.90;;;;;;5033872;28;19924;-67
2022/05/08 01:13:57;;;;;;;;;;;9.60;99.90;;;;;;5034467;28;20149;-67
2022/05/08 01:16:24;;;;;;;22.98;18.38;;;9.60;99.90;;;;;;5033842;28;19967;-68
2022/05/08 01:18:51;;;;;;;25.05;18.90;;;9.60;99.90;;;;;;5033809;28;20040;-67
2022/05/08 01:21:38;;;;;;;;;;;9.60;99.90;;;;;;5023087;28;20512;-68
2022/05/08 01:24:06;;;;;;;24.83;20.58;;;9.70;99.90;;;;;;5037058;28;19928;-67
2022/05/08 01:26:32;;;;;;;23.17;18.63;;;9.70;99.90;;;;;;5032334;28;20073;-67
2022/05/08 01:29:01;;;;;;;25.23;18.58;;;9.70;99.90;;;;;;5033506;28;20033;-68
2022/05/08 01:31:28;;;;;;;26.70;19.13;;;9.70;99.90;;;;;;5033963;28;20674;-67
2022/05/08 01:33:54;;;;;;;22.13;17.88;;;9.80;99.90;;;;;;5033989;28;20115;-68
2022/05/08 01:36:21;;;;;;;;;;;9.80;99.90;;;;;;5033805;28;20071;-67
2022/05/08 01:38:48;;;;;;;24.85;18.88;;;9.80;99.90;;;;;;5032470;28;19925;-68
2022/05/08 01:41:16;;;;;;;22.83;17.67;;;9.80;99.90;;;;;;5032786;28;20041;-67
2022/05/08 01:43:42;;;;;;;22.40;17.38;;;9.80;99.90;;;;;;5033580;28;20048;-67
2022/05/08 01:46:10;;;;;;;20.02;16.52;;;9.90;99.90;;;;;;5034264;28;20076;-67
2022/05/08 01:48:38;;;;;;;21.38;17.20;;;9.90;99.90;;;;;;5033217;28;20041;-67
2022/05/08 01:51:04;;;;;;;;;;;9.90;99.90;;;;;;5034178;28;20041;-67
2022/05/08 01:53:35;;;;;;;24.40;18.13;;;9.90;99.90;;;;;;5031664;28;20111;-68
2022/05/08 01:56:05;;;;;;;20.17;16.35;;;9.90;99.90;;;;;;5032762;28;20419;-67
2022/05/08 01:58:32;;;;;;;22.80;18.98;;;9.90;99.90;;;;;;5033054;28;20049;-68
2022/05/08 02:01:01;;;;;;;22.60;18.65;;;9.90;99.90;;;;;;5032096;28;20095;-67
2022/05/08 02:03:29;;;;;;;22.15;17.95;;;10.00;99.90;;;;;;5025331;28;20159;-68
2022/05/08 02:05:55;;;;;;;24.25;17.77;;;10.00;99.90;;;;;;5031886;28;20526;-68
2022/05/08 02:08:22;;;;;;;;;;;10.00;99.90;;;;;;5032982;28;20049;-68
2022/05/08 02:10:52;;;;;;;22.83;18.15;;;10.00;99.90;;;;;;5032553;28;19924;-68
2022/05/08 02:13:19;;;;;;;22.52;17.15;;;10.00;99.90;;;;;;5033013;28;20044;-67
2022/05/08 02:15:46;;;;;;;24.23;17.23;;;10.00;99.90;;;;;;5033572;28;20045;-67
2022/05/08 02:18:13;;;;;;;21.83;17.45;;;10.00;99.90;;;;;;5031963;28;20052;-67
2022/05/08 02:20:40;;;;;;;21.48;17.15;;;10.00;99.90;;;;;;5033743;28;20041;-67
2022/05/08 02:23:08;;;;;;;23.35;17.10;;;10.00;99.90;;;;;;5037266;28;20049;-67
2022/05/08 02:25:37;;;;;;;27.02;22.25;;;10.00;99.90;;;;;;5037829;28;20041;-67
2022/05/08 02:28:04;;;;;;;23.75;17.45;;;10.00;99.90;;;;;;5037072;28;20056;-67
2022/05/08 02:30:31;;;;;;;23.42;19.05;;;10.00;99.90;;;;;;5037243;28;20045;-67
2022/05/08 02:32:58;;;;;;;20.83;17.08;;;10.10;99.90;;;;;;5037456;28;20098;-67
2022/05/08 02:35:25;;;;;;;23.83;18.02;;;10.00;99.90;;;;;;5037532;28;20062;-67
2022/05/08 02:37:53;;;;;;;;;;;10.00;99.90;;;;;;5037158;28;20037;-67
2022/05/08 02:40:22;;;;;;;21.98;17.65;;;10.10;99.90;;;;;;5037317;28;20039;-67
2022/05/08 02:42:50;;;;;;;19.20;16.42;;;10.00;99.90;;;;;;5037667;28;20127;-67
2022/05/08 02:45:17;;;;;;;23.23;17.42;;;10.10;99.90;;;;;;5037356;28;20048;-68
2022/05/08 02:47:44;;;;;;;20.50;17.45;;;10.00;99.90;;;;;;5035995;28;20151;-66
2022/05/08 02:50:11;;;;;;;22.10;18.00;;;10.10;99.90;;;;;;5035940;28;20037;-67
2022/05/08 02:52:39;;;;;;;20.75;17.27;;;10.10;99.90;;;;;;5036511;28;20048;-67
2022/05/08 03:00:40;;;;;;;20.20;16.63;;;10.00;99.90;;;;;;5031704;28;20045;-67
2022/05/08 03:03:08;;;;;;;24.92;19.63;;;10.00;99.90;;;;;;5025650;28;20049;-68
2022/05/08 03:05:36;;;;;;;22.40;18.48;;;10.00;99.90;;;;;;5018861;28;20037;-67
2022/05/08 03:08:05;;;;;;;25.55;20.17;;;10.00;99.90;;;;;;5033989;28;20045;-67
2022/05/08 03:11:25;;;;;;;24.15;19.10;;;10.00;99.90;;;;;;5036500;28;20064;-66
2022/05/08 03:13:19;;;;;;;23.80;19.02;;;10.10;99.90;;;;;;5036749;28;20044;-67
2022/05/08 03:15:45;;;;;;;;;;;10.10;99.90;;;;;;5036895;28;20110;-67
2022/05/08 03:18:16;;;;;;;21.77;17.75;;;10.10;99.90;;;;;;5016092;28;19929;-67
2022/05/08 03:20:46;;;;;;;21.80;18.77;;;10.10;99.90;;;;;;5016827;28;20141;-67
2022/05/08 03:23:14;;;;;;;21.33;17.10;;;10.10;99.90;;;;;;5016543;28;20053;-67
2022/05/08 03:25:41;;;;;;;19.83;16.52;;;10.10;99.90;;;;;;5016762;28;20103;-67
2022/05/08 03:28:08;;;;;;;21.67;17.00;;;10.10;99.90;;;;;;5015793;28;20475;-67
2022/05/08 03:30:34;;;;;;;;;;;10.10;99.90;;;;;;5016838;28;20051;-67
2022/05/08 03:33:01;;;;;;;18.83;16.08;;;10.20;99.90;;;;;;5015442;28;20094;-67
2022/05/08 03:35:28;;;;;;;;;;;10.10;99.90;;;;;;5032597;28;20033;-67
2022/05/08 03:37:54;;;;;;;22.15;17.75;;;10.10;99.90;;;;;;5015090;28;20609;-68
2022/05/08 03:40:21;;;;;;;21.92;18.23;;;10.20;99.90;;;;;;5022866;28;20353;-67
2022/05/08 03:42:48;;;;;;;;;;;10.20;99.90;;;;;;5036584;28;20135;-67
2022/05/08 03:45:17;;;;;;;22.05;17.52;;;10.20;99.90;;;;;;5036429;28;19929;-67
2022/05/08 03:47:44;;;;;;;24.08;18.17;;;10.20;99.90;;;;;;5035453;28;20950;-68
2022/05/08 03:50:10;;;;;;;21.85;17.02;;;10.20;99.90;;;;;;5034758;28;20478;-67
2022/05/08 03:52:37;;;;;;;;;;;10.20;99.90;;;;;;5036493;28;20079;-69
2022/05/08 03:55:05;;;;;;;26.00;19.10;;;10.20;99.90;;;;;;5036351;28;20406;-68
2022/05/08 03:57:31;;;;;;;22.88;18.65;;;10.20;99.90;;;;;;5034169;28;20055;-70
2022/05/08 03:59:58;;;;;;;;;;;10.20;99.90;;;;;;5035854;28;20087;-69
2022/05/08 04:02:26;;;;;;;21.80;18.67;;;10.20;99.90;;;;;;5035979;28;19924;-70
2022/05/08 04:05:00;;;;;;;24.35;20.38;;;10.20;99.90;;;;;;5027894;28;20652;-70
2022/05/08 04:07:27;;;;;;;25.02;20.52;;;10.20;99.90;;;;;;5019274;28;20061;-69
2022/05/08 04:09:56;;;;;;;26.67;21.02;;;10.20;99.90;;;;;;5016056;28;20092;-69
2022/05/08 04:12:24;;;;;;;25.52;20.13;;;10.20;99.90;;;;;;5016005;28;20050;-70
2022/05/08 04:14:51;;;;;;;23.23;19.77;;;10.20;99.90;;;;;;5014995;28;20073;-69
2022/05/08 04:17:19;;;;;;;25.00;20.38;;;10.20;99.90;;;;;;5031302;28;20493;-68
2022/05/08 04:19:49;;;;;;;28.08;22.05;;;10.20;99.90;;;;;;5036057;28;20044;-69
2022/05/08 04:25:03;;;;;;;21.92;18.98;;;10.20;99.90;;;;;;5035912;28;20029;-68
2022/05/08 04:27:30;;;;;;;24.88;19.50;;;10.30;99.90;;;;;;5034192;28;20111;-54
2022/05/08 04:29:57;;;;;;;27.33;21.48;;;10.30;99.90;;;;;;5035141;28;20048;-52
2022/05/08 04:32:24;;;;;;;38.30;26.13;;;10.20;99.90;;;;;;5035420;28;20045;-50
2022/05/08 04:34:51;;;;;;;33.47;25.70;;;10.30;99.90;;;;;;5035377;28;20127;-56
2022/05/08 04:37:18;;;;;;;;;;;10.20;99.90;;;;;;5034663;28;20401;-55
2022/05/08 04:39:44;;;;;;;31.35;25.13;;;10.30;99.90;;;;;;5032921;28;19931;-54
2022/05/08 04:42:11;;;;;;;34.65;27.05;;;10.30;99.90;;;;;;5033657;28;20523;-56
2022/05/08 04:44:38;;;;;;;;;;;10.30;99.90;;;;;;5032738;28;20729;-54
2022/05/08 04:47:05;;;;;;;26.33;21.77;;;10.30;99.90;;;;;;5033711;28;19925;-56
2022/05/08 04:49:31;;;;;;;31.20;23.35;;;10.30;99.90;;;;;;5033145;28;20048;-53
2022/05/08 04:51:58;;;;;;;28.50;22.98;;;10.40;99.90;;;;;;5034348;28;20110;-54
2022/05/08 04:54:25;;;;;;;36.72;26.20;;;10.40;99.90;;;;;;5034953;28;20526;-55
2022/05/08 04:56:52;;;;;;;;;;;10.40;99.90;;;;;;5034433;28;20045;-55
2022/05/08 04:59:19;;;;;;;27.80;23.05;;;10.40;99.90;;;;;;5034599;28;19920;-57
2022/05/08 05:01:45;;;;;;;;;;;10.40;99.90;;;;;;5033573;28;20060;-56
2022/05/08 05:04:12;;;;;;;39.00;24.33;;;10.40;99.90;;;;;;5034788;28;20178;-53
2022/05/08 05:06:41;;;;;;;;;;;10.40;99.90;;;;;;5020629;28;20100;-56
2022/05/08 05:09:07;;;;;;;26.63;21.25;;;10.50;99.90;;;;;;5012062;28;20598;-54
2022/05/08 05:11:34;;;;;;;31.00;24.13;;;10.50;99.90;;;;;;5014775;28;20708;-55
2022/05/08 05:14:01;;;;;;;33.72;25.48;;;10.50;99.90;;;;;;5012097;28;20041;-55
2022/05/08 05:16:28;;;;;;;;;;;10.50;99.90;;;;;;5025397;28;20518;-54
2022/05/08 05:18:55;;;;;;;29.33;21.92;;;10.50;99.90;;;;;;5033152;28;19925;-52
2022/05/08 05:21:21;;;;;;;;;;;10.50;99.90;;;;;;5034736;28;20037;-55
2022/05/08 05:23:48;;;;;;;33.83;26.23;;;10.50;99.90;;;;;;5033557;28;19925;-55
2022/05/08 05:26:15;;;;;;;;;;;10.50;99.90;;;;;;5034162;28;20791;-53
2022/05/08 05:28:44;;;;;;;;;;;10.50;99.90;;;;;;5033967;28;19925;-57
2022/05/08 05:31:12;;;;;;;;;;;10.50;99.90;;;;;;5034710;28;19931;-63
2022/05/08 05:33:39;;;;;;;;;;;10.50;99.90;;;;;;5034812;28;20003;-62
2022/05/08 05:36:06;;;;;;;30.65;24.02;;;10.50;99.90;;;;;;5033461;28;19929;-58
2022/05/08 05:38:33;;;;;;;33.60;25.48;;;10.50;99.90;;;;;;5032806;28;20045;-58
2022/05/08 05:41:00;;;;;;;;;;;10.60;99.90;;;;;;5034236;28;20577;-65
2022/05/08 05:43:27;;;;;;;41.92;28.45;;;10.60;99.90;;;;;;5033589;28;19974;-64
2022/05/08 05:48:39;;;;;;;37.80;27.55;;;10.60;99.90;;;;;;5032264;28;20059;-56
2022/05/08 05:51:06;;;;;;;;;;;10.60;99.90;;;;;;5014882;28;20528;-54
2022/05/08 05:53:35;;;;;;;37.22;28.10;;;10.60;99.90;;;;;;5020137;28;20337;-51
2022/05/08 05:56:02;;;;;;;35.88;26.83;;;10.60;99.90;;;;;;5034327;28;20569;-54
2022/05/08 05:58:28;;;;;;;34.65;26.35;;;10.70;99.90;;;;;;5031337;28;20529;-55
2022/05/08 06:00:55;;;;;;;;;;;10.70;99.90;;;;;;5033152;28;20049;-52
2022/05/08 06:03:22;;;;;;;36.35;27.55;;;10.70;99.90;;;;;;5031667;28;19931;-51
2022/05/08 06:05:49;;;;;;;35.65;26.02;;;10.80;99.90;;;;;;5030774;28;20060;-54
2022/05/08 06:08:16;;;;;;;32.88;26.27;;;10.80;99.90;;;;;;5030664;28;20545;-54
2022/05/08 06:10:43;;;;;;;;;;;10.80;99.90;;;;;;5033271;28;20041;-54
2022/05/08 06:13:10;;;;;;;36.08;26.13;;;10.90;99.90;;;;;;5033609;28;19929;-53
2022/05/08 06:15:37;;;;;;;;;;;10.90;99.90;;;;;;5034395;28;20076;-53
2022/05/08 06:18:03;;;;;;;29.88;22.67;;;11.00;99.90;;;;;;5031337;28;20000;-54
2022/05/08 06:20:32;;;;;;;;;;;11.00;99.90;;;;;;5033840;28;20056;-54
2022/05/08 06:23:00;;;;;;;32.45;25.52;;;11.00;99.90;;;;;;5033912;28;19925;-54
2022/05/08 06:25:30;;;;;;;28.60;23.02;;;11.10;99.90;;;;;;5033118;28;20406;-55
2022/05/08 06:27:56;;;;;;;30.90;24.83;;;11.20;99.90;;;;;;5032896;28;20049;-54
2022/05/08 06:30:23;;;;;;;27.88;21.70;;;11.20;99.90;;;;;;5033613;28;20045;-51
2022/05/08 06:32:50;;;;;;;;;;;11.30;99.90;;;;;;5033745;28;20069;-54
2022/05/08 06:35:40;;;;;;;24.08;19.73;;;11.30;99.90;;;;;;5033648;28;19958;-50
2022/05/08 06:38:10;;;;;;;25.65;20.55;;;11.30;99.90;;;;;;5031184;28;20135;-53
2022/05/08 06:40:38;;;;;;;27.48;20.48;;;11.30;99.90;;;;;;5033477;28;20087;-52
2022/05/08 06:43:06;;;;;;;27.73;22.50;;;11.40;99.90;;;;;;5033126;28;20198;-53
2022/05/08 06:45:34;;;;;;;25.52;20.23;;;11.30;99.90;;;;;;5033902;28;20045;-50
2022/05/08 06:48:05;;;;;;;24.20;19.77;;;11.30;99.90;;;;;;5022660;28;20108;-52
2022/05/08 06:50:33;;;;;;;21.90;18.30;;;11.30;99.90;;;;;;4992924;28;20631;-50
2022/05/08 06:53:00;;;;;;;21.73;18.05;;;11.40;99.90;;;;;;4992557;28;20026;-53
2022/05/08 06:55:27;;;;;;;20.58;17.40;;;11.50;99.90;;;;;;4993192;28;20053;-55
2022/05/08 06:57:54;;;;;;;25.98;21.10;;;11.50;99.90;;;;;;4992835;28;20181;-56
2022/05/08 07:03:06;;;;;;;26.17;21.38;;;11.60;99.90;;;;;;4994449;28;20415;-54
2022/05/08 07:05:40;;;;;;;22.50;18.50;;;11.70;99.90;;;;;;4991876;28;20112;-54
2022/05/08 07:08:07;;;;;;;26.98;17.95;;;11.70;99.90;;;;;;4987151;28;20110;-55
2022/05/08 07:10:34;;;;;;;22.17;18.52;;;11.80;99.90;;;;;;4995059;28;20828;-53
2022/05/08 07:13:01;;;;;;;22.48;18.23;;;11.80;99.90;;;;;;4997709;28;20965;-54
2022/05/08 07:15:28;;;;;;;22.23;18.38;;;11.80;99.90;;;;;;4997732;28;20096;-53
2022/05/08 07:18:14;;;;;;;21.17;17.45;;;11.80;99.90;;;;;;4991900;28;20042;-52
2022/05/08 07:20:41;;;;;;;22.38;18.98;;;11.80;99.90;;;;;;4993227;28;20043;-52
2022/05/08 07:23:08;;;;;;;;;;;11.80;99.90;;;;;;4995305;28;20038;-50
2022/05/08 07:25:35;;;;;;;20.98;18.25;;;11.80;99.90;;;;;;4997856;28;19925;-52
2022/05/08 07:28:02;;;;;;;;;;;11.80;99.90;;;;;;4996491;28;20044;-51
2022/05/08 07:30:28;;;;;;;24.23;19.08;;;11.80;99.90;;;;;;4998013;28;19921;-52
2022/05/08 07:32:56;;;;;;;18.42;15.68;;;11.80;99.90;;;;;;4994988;28;20850;-52
2022/05/08 07:38:09;;;;;;;18.83;16.83;;;11.80;99.90;;;;;;4996676;28;20133;-52
2022/05/08 07:40:35;;;;;;;22.58;18.45;;;11.80;99.90;;;;;;4996828;28;20074;-52
2022/05/08 07:43:03;;;;;;;;;;;11.80;99.90;;;;;;4997455;28;20045;-53
2022/05/08 07:45:30;;;;;;;21.35;18.55;;;11.80;99.90;;;;;;4996650;28;20498;-56
2022/05/08 07:47:59;;;;;;;23.63;19.77;;;11.80;99.90;;;;;;4996201;28;20053;-50
2022/05/08 07:50:26;;;;;;;22.88;19.50;;;11.90;99.90;;;;;;4996555;28;20054;-50
2022/05/08 07:52:53;;;;;;;25.35;20.95;;;11.90;99.90;;;;;;4997181;28;20044;-55
2022/05/08 07:55:19;;;;;;;24.13;19.08;;;11.90;99.90;;;;;;4996437;28;20050;-52
2022/05/08 07:57:46;;;;;;;24.77;19.30;;;11.90;99.90;;;;;;4995373;28;20042;-55
2022/05/08 08:00:13;;;;;;;21.77;18.05;;;11.90;99.90;;;;;;4996195;28;20038;-51
2022/05/08 08:02:41;;;;;;;26.58;19.98;;;12.00;99.90;;;;;;4995171;28;20042;-52
2022/05/08 08:05:08;;;;;;;23.40;20.02;;;12.00;99.90;;;;;;4986803;28;20061;-53
2022/05/08 08:09:51;;;;;;;20.95;17.98;;;12.00;99.90;;;;;;5049324;28;20226;-50
2022/05/08 08:12:18;;;;;;;25.42;19.20;;;12.10;99.90;;;;;;5050639;28;20045;-50
2022/05/08 08:14:45;;;;;;;28.40;19.30;;;12.10;99.90;;;;;;5051183;28;20121;-53
2022/05/08 08:17:14;;;;;;;22.45;19.75;;;12.10;99.90;;;;;;5046996;28;20041;-51
2022/05/08 08:19:47;;;;;;;20.27;16.83;;;12.10;99.90;;;;;;5031010;28;20045;-56
2022/05/08 08:22:14;;;;;;;19.63;16.00;;;12.20;99.90;;;;;;5031414;28;20099;-53
2022/05/08 08:24:40;;;;;;;;;;;12.20;99.90;;;;;;5031884;28;20053;-51
2022/05/08 08:27:07;;;;;;;22.45;16.60;;;12.30;99.90;;;;;;5030282;28;20094;-52
2022/05/08 08:29:34;;;;;;;;;;;12.30;99.90;;;;;;5031411;28;20037;-52
2022/05/08 08:32:01;;;;;;;22.77;18.42;;;12.40;99.90;;;;;;5029468;28;19925;-52
2022/05/08 08:34:28;;;;;;;23.95;20.15;;;12.40;99.90;;;;;;5031010;28;20052;-50
2022/05/08 08:36:55;;;;;;;21.38;18.40;;;12.50;99.90;;;;;;5030486;28;20069;-52
2022/05/08 08:39:22;;;;;;;;;;;12.50;99.90;;;;;;5032173;28;20041;-53
2022/05/08 08:42:06;;;;;;;22.73;18.77;;;12.50;99.90;;;;;;5029279;28;19929;-53
2022/05/08 08:50:05;;;;;;;21.77;17.83;;;12.80;99.90;;;;;;5030758;28;20057;-51
2022/05/08 08:52:32;;;;;;;22.48;18.60;;;12.90;99.90;;;;;;5030528;28;20041;-52
2022/05/08 08:54:59;;;;;;;21.80;17.95;;;13.00;99.90;;;;;;5029944;28;20056;-59
2022/05/08 08:57:26;;;;;;;17.08;15.27;;;13.10;99.90;;;;;;5030283;28;20081;-56
2022/05/08 08:59:53;;;;;;;;;;;13.20;99.90;;;;;;5030685;28;20114;-56
2022/05/08 09:02:20;;;;;;;19.98;16.20;;;13.30;99.90;;;;;;5029920;28;19932;-52
2022/05/08 09:04:54;;;;;;;20.52;16.25;;;13.40;99.90;;;;;;5030377;28;20045;-53
2022/05/08 09:07:41;;;;;;;18.30;15.82;;;13.60;99.90;;;;;;5030007;28;20130;-53
2022/05/08 09:10:21;;;;;;;13.70;12.27;;;13.90;99.90;;;;;;5026635;28;20041;-60
2022/05/08 09:12:56;;;;;;;14.88;12.27;;;14.10;99.90;;;;;;5027035;28;20102;-53
2022/05/08 09:15:32;;;;;;;13.45;10.68;;;14.20;99.90;;;;;;5030189;28;20055;-51
2022/05/08 09:18:10;;;;;;;11.07;9.70;;;14.30;99.90;;;;;;5028233;28;20049;-53
2022/05/08 09:20:48;;;;;;;11.57;10.38;;;14.30;99.90;;;;;;5019313;28;20049;-56
2022/05/08 09:23:16;;;;;;;;;;;14.30;99.90;;;;;;5018447;28;20159;-56
2022/05/08 09:25:56;;;;;;;9.73;8.73;;;14.40;99.90;;;;;;5016751;28;20024;-56
2022/05/08 09:28:44;;;;;;;8.70;7.22;;;14.40;99.90;;;;;;5016257;28;20061;-57
2022/05/08 09:31:15;;;;;;;7.53;6.65;;;14.40;99.90;;;;;;5017572;28;20365;-57
2022/05/08 09:33:44;;;;;;;9.00;6.72;;;14.50;99.90;;;;;;5017113;28;20424;-56
2022/05/08 09:36:21;;;;;;;8.57;7.68;;;14.60;99.90;;;;;;5017515;28;20638;-56
2022/05/08 09:38:48;;;;;;;;;;;14.80;99.90;;;;;;5017254;28;20049;-56
2022/05/08 09:41:18;;;;;;;8.13;7.28;;;15.10;99.90;;;;;;5017013;28;19928;-57
2022/05/08 09:43:45;;;;;;;9.32;6.80;;;15.30;99.90;;;;;;5016385;28;20064;-55
2022/05/08 09:46:12;;;;;;;5.55;5.05;;;15.50;99.90;;;;;;5017235;28;20081;-57
2022/05/08 09:48:39;;;;;;;7.43;5.07;;;15.60;99.90;;;;;;5015436;28;20033;-55
2022/05/08 09:51:15;;;;;;;6.30;4.60;;;15.70;99.90;;;;;;5016966;28;20049;-57
2022/05/08 09:53:46;;;;;;;5.97;5.40;;;15.70;99.90;;;;;;5014850;28;20038;-55
2022/05/08 09:56:14;;;;;;;6.60;6.00;;;15.70;99.90;;;;;;5015927;28;20137;-55
2022/05/08 09:58:41;;;;;;;11.02;5.60;;;15.80;99.90;;;;;;5014116;28;20141;-57
2022/05/08 10:01:08;;;;;;;7.38;6.45;;;15.90;99.90;;;;;;5016152;28;20042;-55
2022/05/08 10:03:35;;;;;;;7.18;6.47;;;15.90;99.90;;;;;;5016382;28;20041;-55
2022/05/08 10:06:02;;;;;;;6.18;5.38;;;15.90;99.90;;;;;;5002161;28;20054;-53
2022/05/08 10:08:35;;;;;;;6.40;5.78;;;15.80;99.90;;;;;;4998250;28;20046;-56
2022/05/08 10:13:57;;;;;;;11.75;5.95;;;15.70;99.90;;;;;;5014994;28;20054;-56
2022/05/08 10:16:44;;;;;;;7.00;6.30;;;15.60;99.90;;;;;;5015513;28;20119;-56
2022/05/08 10:19:22;;;;;;;7.28;6.57;;;15.60;99.90;;;;;;5014432;28;20071;-57
2022/05/08 10:22:05;;;;;;;11.18;6.20;;;15.40;99.90;;;;;;5014335;28;20564;-54
2022/05/08 10:24:43;;;;;;;6.95;6.18;;;15.30;99.90;;;;;;5014928;28;20064;-51
2022/05/08 10:27:31;;;;;;;7.07;6.35;;;15.30;99.90;;;;;;5015081;28;20057;-51
2022/05/08 10:29:58;;;;;;;7.18;5.93;;;15.20;99.90;;;;;;5016411;28;20045;-51
2022/05/08 10:32:29;;;;;;;8.68;6.72;;;15.10;99.90;;;;;;5012985;28;20593;-52
2022/05/08 10:35:11;;;;;;;7.85;7.07;;;15.00;99.90;;;;;;5016360;28;20597;-56
2022/05/08 10:37:39;;;;;;;9.48;7.13;;;15.00;99.90;;;;;;5014950;28;20129;-50
2022/05/08 10:40:21;;;;;;;8.10;6.78;;;15.00;99.90;;;;;;5015338;28;20111;-52
2022/05/08 10:42:54;;;;;;;7.97;7.22;;;15.00;99.90;;;;;;5016380;28;20068;-51
2022/05/08 10:45:31;;;;;;;7.68;6.97;;;15.00;99.90;;;;;;5015586;28;20896;-56
2022/05/08 10:48:15;;;;;;;11.40;8.65;;;15.00;99.90;;;;;;5015096;28;20045;-55
2022/05/08 10:50:45;;;;;;;11.90;8.98;;;15.00;99.90;;;;;;5015187;28;20057;-54
2022/05/08 10:53:23;;;;;;;9.93;7.90;;;15.00;99.90;;;;;;5015804;28;20091;-55
2022/05/08 10:55:51;;;;;;;8.68;7.78;;;14.90;99.90;;;;;;5015437;28;20041;-53
2022/05/08 10:58:23;;;;;;;9.27;8.35;;;15.00;99.90;;;;;;5013205;28;20156;-55
2022/05/08 11:00:57;;;;;;;12.20;8.48;;;15.00;99.90;;;;;;5015600;28;20047;-55
2022/05/08 11:03:25;;;;;;;10.70;8.25;;;15.00;99.90;;;;;;5015388;28;20056;-56
2022/05/08 11:05:53;;;;;;;9.75;8.43;;;15.00;99.90;;;;;;5002431;28;20042;-56
2022/05/08 11:08:34;;;;;;;11.68;8.18;;;15.00;99.90;;;;;;5014435;28;20052;-56
2022/05/08 11:11:09;;;;;;;10.23;9.10;;;14.90;99.90;;;;;;5015634;28;20342;-57
2022/05/08 11:13:37;;;;;;;9.85;8.85;;;14.90;99.90;;;;;;5008045;28;20041;-57
2022/05/08 11:16:04;;;;;;;11.88;9.10;;;14.90;99.90;;;;;;5015079;28;20041;-56
2022/05/08 11:18:31;;;;;;;10.65;8.82;;;14.90;99.90;;;;;;5014355;28;20041;-55
2022/05/08 11:21:00;;;;;;;8.25;7.45;;;14.90;99.90;;;;;;5015605;28;20037;-54
2022/05/08 11:23:34;;;;;;;9.98;8.70;;;14.90;99.90;;;;;;5014763;28;20510;-56
2022/05/08 11:26:05;;;;;;;9.07;8.18;;;14.90;99.90;;;;;;5014226;28;20046;-57
2022/05/08 11:28:34;;;;;;;9.38;8.30;;;15.00;99.90;;;;;;5015068;28;20606;-56
2022/05/08 11:31:15;;;;;;;14.57;9.30;;;15.00;99.90;;;;;;5014086;28;20087;-56
2022/05/08 11:36:38;;;;;;;10.40;9.35;;;15.00;99.90;;;;;;5014956;28;20045;-53
2022/05/08 11:39:11;;;;;;;;;;;15.00;99.90;;;;;;5014762;28;20057;-56
2022/05/08 11:41:42;;;;;;;12.88;9.82;;;15.00;99.90;;;;;;5014237;28;19929;-56
2022/05/08 11:44:16;;;;;;;12.18;10.88;;;15.00;99.90;;;;;;5014473;28;20054;-55
2022/05/08 11:46:48;;;;;;;12.65;9.65;;;15.00;99.90;;;;;;5012484;28;20049;-56
2022/05/08 11:49:20;;;;;;;12.98;10.07;;;15.00;99.90;;;;;;5014801;28;20060;-55
2022/05/08 11:51:49;;;;;;;9.32;8.40;;;14.90;99.90;;;;;;5013458;28;20072;-56
2022/05/08 11:54:20;;;;;;;9.32;8.32;;;14.80;99.90;;;;;;5014355;28;20123;-57
2022/05/08 11:56:51;;;;;;;9.23;8.32;;;14.80;99.90;;;;;;5013944;28;20044;-57
2022/05/08 11:59:20;;;;;;;8.45;7.65;;;14.80;99.90;;;;;;5013048;28;20041;-55
2022/05/08 12:01:50;;;;;;;8.73;7.88;;;14.80;99.90;;;;;;5013208;28;20060;-56
2022/05/08 12:04:32;;;;;;;9.10;8.15;;;14.80;99.90;;;;;;5014143;28;20053;-55
2022/05/08 12:07:07;;;;;;;9.27;8.35;;;14.80;99.90;;;;;;5003497;28;20081;-53
2022/05/08 12:09:37;;;;;;;15.43;8.18;;;14.90;99.90;;;;;;4992510;28;20737;-57
2022/05/08 12:12:29;;;;;;;9.55;8.48;;;14.90;99.90;;;;;;5011939;28;20633;-54
2022/05/08 12:15:10;;;;;;;10.43;7.85;;;15.00;99.90;;;;;;5011226;28;20037;-55
2022/05/08 12:17:40;;;;;;;10.02;8.63;;;15.00;99.90;;;;;;5010897;28;20045;-57
2022/05/08 12:20:17;;;;;;;9.35;8.35;;;15.00;99.90;;;;;;5013345;28;20099;-56
2022/05/08 12:22:46;;;;;;;9.52;8.23;;;15.00;99.90;;;;;;5012652;28;20132;-56
2022/05/08 12:25:13;;;;;;;9.82;8.82;;;15.10;99.90;;;;;;5013369;28;20560;-56
2022/05/08 12:27:40;;;;;;;11.50;8.50;;;15.10;99.90;;;;;;5012467;28;20446;-58
2022/05/08 12:30:10;;;;;;;10.90;8.88;;;15.20;99.90;;;;;;5013350;28;20041;-54
2022/05/08 12:32:39;;;;;;;12.68;7.78;;;15.20;99.90;;;;;;5012526;28;20050;-56
2022/05/08 12:35:11;;;;;;;8.68;7.45;;;15.20;99.90;;;;;;5013814;28;20684;-56
2022/05/08 12:37:38;;;;;;;8.82;7.80;;;15.30;99.90;;;;;;5012411;28;20057;-58
2022/05/08 12:40:13;;;;;;;12.23;9.25;;;15.30;99.90;;;;;;5013070;28;20037;-57
2022/05/08 12:42:40;;;;;;;9.63;8.63;;;15.40;99.90;;;;;;5013357;28;20049;-55
2022/05/08 12:45:07;;;;;;;9.95;8.95;;;15.50;99.90;;;;;;5007750;28;20136;-54
2022/05/08 12:47:34;;;;;;;9.88;8.90;;;15.50;99.90;;;;;;5012584;28;20053;-58
2022/05/08 12:50:04;;;;;;;11.95;9.07;;;15.60;99.90;;;;;;5012230;28;20045;-54
2022/05/08 12:52:31;;;;;;;10.95;9.75;;;15.60;99.90;;;;;;5012904;28;20034;-56
2022/05/08 12:54:58;;;;;;;10.65;9.55;;;15.70;99.90;;;;;;5014246;28;20038;-55
2022/05/08 13:00:12;;;;;;;9.73;8.68;;;15.70;99.90;;;;;;5017179;28;20045;-55
2022/05/08 13:02:38;;;;;;;11.52;8.73;;;15.70;99.90;;;;;;5016176;28;20045;-56
2022/05/08 13:05:06;;;;;;;8.43;7.63;;;15.80;99.90;;;;;;5017008;28;21178;-57
2022/05/08 13:07:32;;;;;;;10.07;7.70;;;15.80;99.90;;;;;;4998738;28;20050;-55
2022/05/08 13:09:59;;;;;;;;;;;15.80;99.90;;;;;;4994536;28;20045;-55
2022/05/08 13:12:26;;;;;;;12.40;8.50;;;15.90;99.90;;;;;;4996113;28;19932;-58
2022/05/08 13:14:56;;;;;;;9.73;8.75;;;15.90;99.90;;;;;;5001891;28;20062;-61
2022/05/08 13:17:23;;;;;;;11.60;8.00;;;15.90;99.90;;;;;;5014246;28;20048;-56
2022/05/08 13:19:50;;;;;;;11.48;8.65;;;15.90;99.90;;;;;;5015580;28;20080;-52
2022/05/08 13:22:16;;;;;;;8.20;7.18;;;16.00;99.90;;;;;;5013756;28;20519;-58
2022/05/08 13:24:43;;;;;;;8.27;7.43;;;16.00;99.90;;;;;;5013639;28;20045;-58
2022/05/08 13:27:10;;;;;;;;;;;16.00;99.90;;;;;;5015235;28;20103;-55
2022/05/08 13:29:37;;;;;;;15.13;9.20;;;16.10;99.90;;;;;;5015092;28;19955;-56
2022/05/08 13:32:04;;;;;;;10.45;8.85;;;16.10;99.90;;;;;;5014907;28;20432;-55